sensor_id;sensor_type;location;lat;lon;timestamp;pressure;altitude;pressure_sealevel;temperature;humidity
77855;BME280;67046;50.088;14.336;2023-05-07T00:00:05;97773.82;;;13.00;65.03
77855;BME280;67046;50.088;14.336;2023-05-07T00:00:52;97772.56;;;12.97;65.10
77855;BME280;67046;50.088;14.336;2023-05-07T00:01:26;97773.08;;;12.96;65.16
77855;BME280;67046;50.088;14.336;2023-05-07T00:01:57;97774.02;;;12.95;65.23
77855;BME280;67046;50.088;14.336;2023-05-07T00:02:28;97773.66;;;12.95;65.17
77855;BME280;67046;50.088;14.336;2023-05-07T00:03:00;97771.33;;;12.96;64.88
77855;BME280;67046;50.088;14.336;2023-05-07T00:03:32;97769.63;;;12.95;65.04
77855;BME280;67046;50.088;14.336;2023-05-07T00:04:04;97772.67;;;12.96;65.13
77855;BME280;67046;50.088;14.336;2023-05-07T00:04:35;97773.79;;;12.97;65.18
77855;BME280;67046;50.088;14.336;2023-05-07T00:05:08;97770.83;;;12.98;65.21
77855;BME280;67046;50.088;14.336;2023-05-07T00:05:39;97772.31;;;12.98;65.15
77855;BME280;67046;50.088;14.336;2023-05-07T00:06:12;97773.11;;;12.99;65.26
77855;BME280;67046;50.088;14.336;2023-05-07T00:06:43;97770.58;;;12.99;65.16
77855;BME280;67046;50.088;14.336;2023-05-07T00:07:15;97774.08;;;12.99;65.06
77855;BME280;67046;50.088;14.336;2023-05-07T00:07:46;97774.28;;;12.99;65.19
77855;BME280;67046;50.088;14.336;2023-05-07T00:08:19;97773.39;;;13.00;65.21
77855;BME280;67046;50.088;14.336;2023-05-07T00:08:51;97768.45;;;12.99;64.92
77855;BME280;67046;50.088;14.336;2023-05-07T00:09:22;97775.00;;;13.01;65.08
77855;BME280;67046;50.088;14.336;2023-05-07T00:09:53;97775.08;;;13.02;64.57
77855;BME280;67046;50.088;14.336;2023-05-07T00:10:25;97777.62;;;13.03;64.98
77855;BME280;67046;50.088;14.336;2023-05-07T00:10:57;97775.91;;;13.03;64.94
77855;BME280;67046;50.088;14.336;2023-05-07T00:11:28;97774.91;;;13.03;64.78
77855;BME280;67046;50.088;14.336;2023-05-07T00:11:59;97778.00;;;13.04;65.15
77855;BME280;67046;50.088;14.336;2023-05-07T00:12:31;97778.64;;;13.04;64.83
77855;BME280;67046;50.088;14.336;2023-05-07T00:13:04;97780.84;;;13.05;64.83
77855;BME280;67046;50.088;14.336;2023-05-07T00:13:36;97779.98;;;13.05;64.94
77855;BME280;67046;50.088;14.336;2023-05-07T00:14:07;97778.87;;;13.05;64.82
77855;BME280;67046;50.088;14.336;2023-05-07T00:14:38;97778.61;;;13.06;64.72
77855;BME280;67046;50.088;14.336;2023-05-07T00:15:09;97778.16;;;13.07;64.78
77855;BME280;67046;50.088;14.336;2023-05-07T00:15:41;97778.52;;;13.08;64.87
77855;BME280;67046;50.088;14.336;2023-05-07T00:16:12;97778.62;;;13.07;64.53
77855;BME280;67046;50.088;14.336;2023-05-07T00:16:43;97779.19;;;13.07;64.91
77855;BME280;67046;50.088;14.336;2023-05-07T00:17:14;97776.09;;;13.06;64.92
77855;BME280;67046;50.088;14.336;2023-05-07T00:17:46;97777.56;;;13.06;64.60
77855;BME280;67046;50.088;14.336;2023-05-07T00:18:17;97774.67;;;13.05;64.44
77855;BME280;67046;50.088;14.336;2023-05-07T00:18:52;97777.23;;;13.05;64.42
77855;BME280;67046;50.088;14.336;2023-05-07T00:19:23;97776.42;;;13.05;64.78
77855;BME280;67046;50.088;14.336;2023-05-07T00:19:54;97772.73;;;13.05;64.64
77855;BME280;67046;50.088;14.336;2023-05-07T00:20:26;97777.72;;;13.06;64.54
77855;BME280;67046;50.088;14.336;2023-05-07T00:20:57;97774.57;;;13.07;64.27
77855;BME280;67046;50.088;14.336;2023-05-07T00:21:29;97772.05;;;13.08;64.33
77855;BME280;67046;50.088;14.336;2023-05-07T00:22:01;97770.13;;;13.08;64.32
77855;BME280;67046;50.088;14.336;2023-05-07T00:22:32;97768.44;;;13.08;64.50
77855;BME280;67046;50.088;14.336;2023-05-07T00:23:04;97771.67;;;13.09;64.63
77855;BME280;67046;50.088;14.336;2023-05-07T00:23:35;97772.69;;;13.09;64.67
77855;BME280;67046;50.088;14.336;2023-05-07T00:24:06;97768.97;;;13.09;64.76
77855;BME280;67046;50.088;14.336;2023-05-07T00:24:37;97769.61;;;13.09;64.60
77855;BME280;67046;50.088;14.336;2023-05-07T00:25:09;97772.69;;;13.09;64.21
77855;BME280;67046;50.088;14.336;2023-05-07T00:25:41;97769.55;;;13.09;64.43
77855;BME280;67046;50.088;14.336;2023-05-07T00:26:12;97768.23;;;13.08;64.62
77855;BME280;67046;50.088;14.336;2023-05-07T00:26:43;97770.67;;;13.09;64.68
77855;BME280;67046;50.088;14.336;2023-05-07T00:27:15;97765.50;;;13.07;64.60
77855;BME280;67046;50.088;14.336;2023-05-07T00:27:46;97769.42;;;13.07;64.51
77855;BME280;67046;50.088;14.336;2023-05-07T00:28:17;97769.77;;;13.08;64.55
77855;BME280;67046;50.088;14.336;2023-05-07T00:28:49;97769.06;;;13.06;64.44
77855;BME280;67046;50.088;14.336;2023-05-07T00:29:20;97770.02;;;13.06;64.52
77855;BME280;67046;50.088;14.336;2023-05-07T00:29:51;97767.95;;;13.07;64.59
77855;BME280;67046;50.088;14.336;2023-05-07T00:30:23;97772.09;;;13.07;64.55
77855;BME280;67046;50.088;14.336;2023-05-07T00:30:54;97772.41;;;13.07;64.49
77855;BME280;67046;50.088;14.336;2023-05-07T00:31:25;97770.81;;;13.07;64.78
77855;BME280;67046;50.088;14.336;2023-05-07T00:31:57;97772.47;;;13.08;64.22
77855;BME280;67046;50.088;14.336;2023-05-07T00:32:28;97773.65;;;13.09;64.36
77855;BME280;67046;50.088;14.336;2023-05-07T00:32:59;97772.05;;;13.08;64.58
77855;BME280;67046;50.088;14.336;2023-05-07T00:33:30;97775.29;;;13.09;64.55
77855;BME280;67046;50.088;14.336;2023-05-07T00:34:02;97774.67;;;13.10;64.42
77855;BME280;67046;50.088;14.336;2023-05-07T00:34:33;97775.98;;;13.10;64.36
77855;BME280;67046;50.088;14.336;2023-05-07T00:35:05;97773.02;;;13.10;64.48
77855;BME280;67046;50.088;14.336;2023-05-07T00:35:36;97775.31;;;13.10;64.45
77855;BME280;67046;50.088;14.336;2023-05-07T00:36:08;97772.88;;;13.08;64.56
77855;BME280;67046;50.088;14.336;2023-05-07T00:36:39;97772.58;;;13.06;64.58
77855;BME280;67046;50.088;14.336;2023-05-07T00:37:10;97773.34;;;13.07;64.66
77855;BME280;67046;50.088;14.336;2023-05-07T00:37:42;97776.50;;;13.07;64.83
77855;BME280;67046;50.088;14.336;2023-05-07T00:38:14;97774.52;;;13.05;64.72
77855;BME280;67046;50.088;14.336;2023-05-07T00:38:46;97774.38;;;13.03;64.88
77855;BME280;67046;50.088;14.336;2023-05-07T00:39:17;97771.63;;;13.04;64.38
77855;BME280;67046;50.088;14.336;2023-05-07T00:39:48;97775.25;;;13.04;64.63
77855;BME280;67046;50.088;14.336;2023-05-07T00:40:19;97769.14;;;13.03;64.79
77855;BME280;67046;50.088;14.336;2023-05-07T00:40:51;97771.91;;;13.04;64.72
77855;BME280;67046;50.088;14.336;2023-05-07T00:41:22;97770.48;;;13.04;64.70
77855;BME280;67046;50.088;14.336;2023-05-07T00:41:53;97770.27;;;13.04;64.48
77855;BME280;67046;50.088;14.336;2023-05-07T00:42:25;97776.27;;;13.05;64.70
77855;BME280;67046;50.088;14.336;2023-05-07T00:42:56;97773.63;;;13.05;64.50
77855;BME280;67046;50.088;14.336;2023-05-07T00:43:28;97772.50;;;13.05;64.49
77855;BME280;67046;50.088;14.336;2023-05-07T00:44:00;97773.90;;;13.03;64.53
77855;BME280;67046;50.088;14.336;2023-05-07T00:44:33;97772.84;;;13.02;64.80
77855;BME280;67046;50.088;14.336;2023-05-07T00:45:04;97775.81;;;13.02;64.54
77855;BME280;67046;50.088;14.336;2023-05-07T00:45:36;97776.83;;;13.02;64.79
77855;BME280;67046;50.088;14.336;2023-05-07T00:46:07;97773.90;;;13.01;64.65
77855;BME280;67046;50.088;14.336;2023-05-07T00:46:38;97773.41;;;13.01;64.63
77855;BME280;67046;50.088;14.336;2023-05-07T00:47:11;97777.08;;;13.01;64.63
77855;BME280;67046;50.088;14.336;2023-05-07T00:47:42;97772.98;;;13.01;64.70
77855;BME280;67046;50.088;14.336;2023-05-07T00:48:14;97772.89;;;13.01;64.68
77855;BME280;67046;50.088;14.336;2023-05-07T00:48:46;97773.64;;;13.02;64.92
77855;BME280;67046;50.088;14.336;2023-05-07T00:49:18;97773.11;;;13.02;64.63
77855;BME280;67046;50.088;14.336;2023-05-07T00:49:50;97770.44;;;13.01;64.80
77855;BME280;67046;50.088;14.336;2023-05-07T00:50:21;97770.73;;;12.98;64.99
77855;BME280;67046;50.088;14.336;2023-05-07T00:50:53;97771.77;;;12.97;64.71
77855;BME280;67046;50.088;14.336;2023-05-07T00:51:25;97777.94;;;12.99;64.81
77855;BME280;67046;50.088;14.336;2023-05-07T00:52:01;97774.60;;;12.98;64.69
77855;BME280;67046;50.088;14.336;2023-05-07T00:52:32;97776.09;;;13.00;64.84
77855;BME280;67046;50.088;14.336;2023-05-07T00:53:04;97772.64;;;13.00;64.71
77855;BME280;67046;50.088;14.336;2023-05-07T00:53:35;97772.59;;;13.00;64.63
77855;BME280;67046;50.088;14.336;2023-05-07T00:54:07;97774.55;;;13.00;64.66
77855;BME280;67046;50.088;14.336;2023-05-07T00:54:40;97773.71;;;12.99;64.60
77855;BME280;67046;50.088;14.336;2023-05-07T00:55:12;97772.44;;;13.01;64.58
77855;BME280;67046;50.088;14.336;2023-05-07T00:55:45;97775.73;;;13.01;64.63
77855;BME280;67046;50.088;14.336;2023-05-07T00:56:17;97773.27;;;13.02;64.72
77855;BME280;67046;50.088;14.336;2023-05-07T00:56:48;97774.48;;;13.02;64.97
77855;BME280;67046;50.088;14.336;2023-05-07T00:57:21;97776.50;;;13.03;64.73
77855;BME280;67046;50.088;14.336;2023-05-07T00:57:53;97774.91;;;13.03;64.47
77855;BME280;67046;50.088;14.336;2023-05-07T00:58:24;97775.23;;;13.03;64.63
77855;BME280;67046;50.088;14.336;2023-05-07T00:58:55;97777.84;;;13.03;64.84
77855;BME280;67046;50.088;14.336;2023-05-07T00:59:27;97778.25;;;13.03;64.88
77855;BME280;67046;50.088;14.336;2023-05-07T00:59:58;97778.57;;;13.02;64.89
77855;BME280;67046;50.088;14.336;2023-05-07T01:00:29;97780.01;;;13.02;64.80
77855;BME280;67046;50.088;14.336;2023-05-07T01:01:01;97780.86;;;13.02;64.78
77855;BME280;67046;50.088;14.336;2023-05-07T01:01:32;97778.73;;;13.01;64.89
77855;BME280;67046;50.088;14.336;2023-05-07T01:02:04;97782.21;;;13.00;64.60
77855;BME280;67046;50.088;14.336;2023-05-07T01:02:35;97781.92;;;13.00;64.71
77855;BME280;67046;50.088;14.336;2023-05-07T01:03:07;97785.05;;;12.99;64.62
77855;BME280;67046;50.088;14.336;2023-05-07T01:03:38;97782.46;;;12.99;64.67
77855;BME280;67046;50.088;14.336;2023-05-07T01:04:09;97784.10;;;12.99;64.56
77855;BME280;67046;50.088;14.336;2023-05-07T01:04:41;97781.29;;;13.00;64.41
77855;BME280;67046;50.088;14.336;2023-05-07T01:05:14;97783.16;;;13.00;64.50
77855;BME280;67046;50.088;14.336;2023-05-07T01:05:47;97782.92;;;13.02;64.50
77855;BME280;67046;50.088;14.336;2023-05-07T01:06:20;97783.02;;;13.02;64.28
77855;BME280;67046;50.088;14.336;2023-05-07T01:06:55;97783.71;;;13.03;64.14
77855;BME280;67046;50.088;14.336;2023-05-07T01:07:27;97785.55;;;13.04;64.36
77855;BME280;67046;50.088;14.336;2023-05-07T01:08:01;97780.02;;;13.04;64.45
77855;BME280;67046;50.088;14.336;2023-05-07T01:08:33;97780.20;;;13.05;64.39
77855;BME280;67046;50.088;14.336;2023-05-07T01:09:06;97775.80;;;13.06;64.69
77855;BME280;67046;50.088;14.336;2023-05-07T01:09:38;97778.83;;;13.06;64.51
77855;BME280;67046;50.088;14.336;2023-05-07T01:10:10;97778.08;;;13.05;64.43
77855;BME280;67046;50.088;14.336;2023-05-07T01:10:43;97776.35;;;13.03;64.34
77855;BME280;67046;50.088;14.336;2023-05-07T01:11:15;97776.30;;;13.03;64.42
77855;BME280;67046;50.088;14.336;2023-05-07T01:11:47;97777.89;;;13.02;64.44
77855;BME280;67046;50.088;14.336;2023-05-07T01:12:20;97775.44;;;13.02;64.29
77855;BME280;67046;50.088;14.336;2023-05-07T01:12:52;97778.14;;;13.01;64.37
77855;BME280;67046;50.088;14.336;2023-05-07T01:13:24;97783.55;;;13.02;64.17
77855;BME280;67046;50.088;14.336;2023-05-07T01:13:57;97781.54;;;13.01;64.25
77855;BME280;67046;50.088;14.336;2023-05-07T01:14:29;97780.89;;;13.01;64.52
77855;BME280;67046;50.088;14.336;2023-05-07T01:15:01;97781.52;;;13.00;64.57
77855;BME280;67046;50.088;14.336;2023-05-07T01:15:33;97781.13;;;12.98;64.40
77855;BME280;67046;50.088;14.336;2023-05-07T01:16:05;97778.19;;;12.97;64.45
77855;BME280;67046;50.088;14.336;2023-05-07T01:16:36;97781.79;;;12.96;64.17
77855;BME280;67046;50.088;14.336;2023-05-07T01:17:08;97781.16;;;12.96;64.53
77855;BME280;67046;50.088;14.336;2023-05-07T01:17:40;97783.21;;;12.96;64.08
77855;BME280;67046;50.088;14.336;2023-05-07T01:18:13;97780.44;;;12.95;64.26
77855;BME280;67046;50.088;14.336;2023-05-07T01:18:44;97783.54;;;12.95;64.42
77855;BME280;67046;50.088;14.336;2023-05-07T01:19:18;97782.02;;;12.95;64.43
77855;BME280;67046;50.088;14.336;2023-05-07T01:19:50;97782.52;;;12.94;64.32
77855;BME280;67046;50.088;14.336;2023-05-07T01:20:24;97779.96;;;12.94;64.25
77855;BME280;67046;50.088;14.336;2023-05-07T01:20:58;97783.84;;;12.94;64.66
77855;BME280;67046;50.088;14.336;2023-05-07T01:21:32;97783.03;;;12.93;64.23
77855;BME280;67046;50.088;14.336;2023-05-07T01:22:08;97784.14;;;12.94;64.34
77855;BME280;67046;50.088;14.336;2023-05-07T01:22:42;97784.66;;;12.93;64.56
77855;BME280;67046;50.088;14.336;2023-05-07T01:23:14;97781.26;;;12.92;64.38
77855;BME280;67046;50.088;14.336;2023-05-07T01:23:47;97783.29;;;12.89;64.48
77855;BME280;67046;50.088;14.336;2023-05-07T01:24:18;97789.27;;;12.89;64.49
77855;BME280;67046;50.088;14.336;2023-05-07T01:24:50;97789.91;;;12.89;64.48
77855;BME280;67046;50.088;14.336;2023-05-07T01:25:21;97786.84;;;12.90;64.48
77855;BME280;67046;50.088;14.336;2023-05-07T01:25:53;97783.48;;;12.91;64.53
77855;BME280;67046;50.088;14.336;2023-05-07T01:26:25;97784.05;;;12.90;64.64
77855;BME280;67046;50.088;14.336;2023-05-07T01:26:56;97786.02;;;12.90;64.85
77855;BME280;67046;50.088;14.336;2023-05-07T01:27:28;97789.84;;;12.91;64.63
77855;BME280;67046;50.088;14.336;2023-05-07T01:27:59;97790.69;;;12.91;64.69
77855;BME280;67046;50.088;14.336;2023-05-07T01:28:32;97794.28;;;12.89;64.71
77855;BME280;67046;50.088;14.336;2023-05-07T01:29:03;97789.12;;;12.88;64.68
77855;BME280;67046;50.088;14.336;2023-05-07T01:29:34;97786.88;;;12.88;64.33
77855;BME280;67046;50.088;14.336;2023-05-07T01:30:06;97789.13;;;12.86;64.58
77855;BME280;67046;50.088;14.336;2023-05-07T01:30:40;97790.92;;;12.86;64.75
77855;BME280;67046;50.088;14.336;2023-05-07T01:31:13;97790.66;;;12.85;64.70
77855;BME280;67046;50.088;14.336;2023-05-07T01:31:46;97789.13;;;12.85;64.80
77855;BME280;67046;50.088;14.336;2023-05-07T01:32:48;97789.14;;;12.85;64.73
77855;BME280;67046;50.088;14.336;2023-05-07T01:33:18;97788.50;;;12.82;64.51
77855;BME280;67046;50.088;14.336;2023-05-07T01:33:51;97789.92;;;12.81;64.67
77855;BME280;67046;50.088;14.336;2023-05-07T01:34:25;97785.10;;;12.82;64.44
77855;BME280;67046;50.088;14.336;2023-05-07T01:34:57;97789.46;;;12.83;64.27
77855;BME280;67046;50.088;14.336;2023-05-07T01:35:34;97789.38;;;12.84;64.38
77855;BME280;67046;50.088;14.336;2023-05-07T01:36:07;97786.27;;;12.82;64.77
77855;BME280;67046;50.088;14.336;2023-05-07T01:36:40;97786.79;;;12.81;64.50
77855;BME280;67046;50.088;14.336;2023-05-07T01:37:14;97788.91;;;12.81;64.47
77855;BME280;67046;50.088;14.336;2023-05-07T01:37:46;97784.77;;;12.80;64.44
77855;BME280;67046;50.088;14.336;2023-05-07T01:38:18;97789.58;;;12.80;64.39
77855;BME280;67046;50.088;14.336;2023-05-07T01:38:52;97790.02;;;12.80;64.49
77855;BME280;67046;50.088;14.336;2023-05-07T01:39:28;97788.16;;;12.80;64.60
77855;BME280;67046;50.088;14.336;2023-05-07T01:40:01;97786.56;;;12.80;64.51
77855;BME280;67046;50.088;14.336;2023-05-07T01:40:33;97786.62;;;12.81;64.63
77855;BME280;67046;50.088;14.336;2023-05-07T01:41:06;97784.40;;;12.82;64.22
77855;BME280;67046;50.088;14.336;2023-05-07T01:41:37;97784.36;;;12.82;64.59
77855;BME280;67046;50.088;14.336;2023-05-07T01:42:09;97786.27;;;12.82;64.55
77855;BME280;67046;50.088;14.336;2023-05-07T01:42:43;97784.42;;;12.82;64.11
77855;BME280;67046;50.088;14.336;2023-05-07T01:43:14;97784.73;;;12.83;64.24
77855;BME280;67046;50.088;14.336;2023-05-07T01:43:47;97786.29;;;12.83;64.49
77855;BME280;67046;50.088;14.336;2023-05-07T01:44:18;97782.95;;;12.84;64.43
77855;BME280;67046;50.088;14.336;2023-05-07T01:44:50;97783.52;;;12.84;64.44
77855;BME280;67046;50.088;14.336;2023-05-07T01:45:21;97782.21;;;12.84;64.19
77855;BME280;67046;50.088;14.336;2023-05-07T01:45:53;97781.68;;;12.84;64.22
77855;BME280;67046;50.088;14.336;2023-05-07T01:46:26;97784.09;;;12.85;64.35
77855;BME280;67046;50.088;14.336;2023-05-07T01:46:57;97780.64;;;12.85;64.34
77855;BME280;67046;50.088;14.336;2023-05-07T01:47:30;97779.72;;;12.84;64.13
77855;BME280;67046;50.088;14.336;2023-05-07T01:48:03;97784.13;;;12.84;64.04
77855;BME280;67046;50.088;14.336;2023-05-07T01:48:34;97785.78;;;12.85;64.46
77855;BME280;67046;50.088;14.336;2023-05-07T01:49:06;97781.27;;;12.85;64.31
77855;BME280;67046;50.088;14.336;2023-05-07T01:49:37;97783.13;;;12.85;64.11
77855;BME280;67046;50.088;14.336;2023-05-07T01:50:09;97783.83;;;12.86;64.18
77855;BME280;67046;50.088;14.336;2023-05-07T01:50:42;97790.42;;;12.87;64.25
77855;BME280;67046;50.088;14.336;2023-05-07T01:51:14;97785.92;;;12.87;64.30
77855;BME280;67046;50.088;14.336;2023-05-07T01:51:45;97784.82;;;12.89;64.14
77855;BME280;67046;50.088;14.336;2023-05-07T01:52:17;97786.68;;;12.89;64.40
77855;BME280;67046;50.088;14.336;2023-05-07T01:52:50;97786.04;;;12.89;64.32
77855;BME280;67046;50.088;14.336;2023-05-07T01:53:21;97787.90;;;12.89;64.02
77855;BME280;67046;50.088;14.336;2023-05-07T01:53:53;97787.85;;;12.90;64.34
77855;BME280;67046;50.088;14.336;2023-05-07T01:54:27;97792.94;;;12.89;64.42
77855;BME280;67046;50.088;14.336;2023-05-07T01:54:59;97787.57;;;12.88;64.40
77855;BME280;67046;50.088;14.336;2023-05-07T01:55:30;97786.54;;;12.87;64.26
77855;BME280;67046;50.088;14.336;2023-05-07T01:56:01;97787.23;;;12.87;64.41
77855;BME280;67046;50.088;14.336;2023-05-07T01:56:33;97785.42;;;12.86;64.24
77855;BME280;67046;50.088;14.336;2023-05-07T01:57:04;97791.30;;;12.86;64.32
77855;BME280;67046;50.088;14.336;2023-05-07T01:57:35;97790.19;;;12.86;64.18
77855;BME280;67046;50.088;14.336;2023-05-07T01:58:06;97793.90;;;12.86;63.95
77855;BME280;67046;50.088;14.336;2023-05-07T01:58:38;97792.64;;;12.87;64.51
77855;BME280;67046;50.088;14.336;2023-05-07T01:59:09;97791.61;;;12.86;64.24
77855;BME280;67046;50.088;14.336;2023-05-07T01:59:40;97791.40;;;12.85;64.34
77855;BME280;67046;50.088;14.336;2023-05-07T02:00:12;97792.52;;;12.85;64.38
77855;BME280;67046;50.088;14.336;2023-05-07T02:00:43;97791.62;;;12.85;64.33
77855;BME280;67046;50.088;14.336;2023-05-07T02:01:14;97794.32;;;12.85;64.14
77855;BME280;67046;50.088;14.336;2023-05-07T02:01:46;97791.98;;;12.84;64.32
77855;BME280;67046;50.088;14.336;2023-05-07T02:02:17;97794.41;;;12.84;64.30
77855;BME280;67046;50.088;14.336;2023-05-07T02:02:48;97792.61;;;12.84;64.24
77855;BME280;67046;50.088;14.336;2023-05-07T02:03:20;97795.92;;;12.85;63.87
77855;BME280;67046;50.088;14.336;2023-05-07T02:03:51;97796.70;;;12.85;64.14
77855;BME280;67046;50.088;14.336;2023-05-07T02:04:23;97795.92;;;12.86;63.95
77855;BME280;67046;50.088;14.336;2023-05-07T02:04:54;97795.70;;;12.86;64.49
77855;BME280;67046;50.088;14.336;2023-05-07T02:05:25;97797.45;;;12.86;64.42
77855;BME280;67046;50.088;14.336;2023-05-07T02:05:56;97797.40;;;12.86;64.26
77855;BME280;67046;50.088;14.336;2023-05-07T02:06:28;97799.47;;;12.86;64.28
77855;BME280;67046;50.088;14.336;2023-05-07T02:06:59;97799.95;;;12.86;64.54
77855;BME280;67046;50.088;14.336;2023-05-07T02:07:30;97798.83;;;12.85;64.41
77855;BME280;67046;50.088;14.336;2023-05-07T02:08:01;97800.00;;;12.86;64.32
77855;BME280;67046;50.088;14.336;2023-05-07T02:08:33;97798.15;;;12.85;64.15
77855;BME280;67046;50.088;14.336;2023-05-07T02:09:04;97801.22;;;12.85;64.52
77855;BME280;67046;50.088;14.336;2023-05-07T02:09:36;97801.63;;;12.84;64.37
77855;BME280;67046;50.088;14.336;2023-05-07T02:10:07;97800.25;;;12.84;64.55
77855;BME280;67046;50.088;14.336;2023-05-07T02:10:39;97800.26;;;12.84;64.08
77855;BME280;67046;50.088;14.336;2023-05-07T02:11:10;97800.79;;;12.84;64.19
77855;BME280;67046;50.088;14.336;2023-05-07T02:11:41;97802.05;;;12.84;64.16
77855;BME280;67046;50.088;14.336;2023-05-07T02:12:12;97802.42;;;12.84;64.48
77855;BME280;67046;50.088;14.336;2023-05-07T02:12:44;97801.84;;;12.84;64.19
77855;BME280;67046;50.088;14.336;2023-05-07T02:13:15;97800.66;;;12.84;64.59
77855;BME280;67046;50.088;14.336;2023-05-07T02:13:46;97799.67;;;12.84;64.52
77855;BME280;67046;50.088;14.336;2023-05-07T02:14:18;97796.23;;;12.85;64.53
77855;BME280;67046;50.088;14.336;2023-05-07T02:14:51;97797.24;;;12.85;64.34
77855;BME280;67046;50.088;14.336;2023-05-07T02:15:22;97796.86;;;12.86;64.39
77855;BME280;67046;50.088;14.336;2023-05-07T02:15:53;97796.98;;;12.86;64.51
77855;BME280;67046;50.088;14.336;2023-05-07T02:16:24;97799.95;;;12.86;64.40
77855;BME280;67046;50.088;14.336;2023-05-07T02:16:56;97794.48;;;12.86;64.59
77855;BME280;67046;50.088;14.336;2023-05-07T02:17:27;97799.20;;;12.85;64.70
77855;BME280;67046;50.088;14.336;2023-05-07T02:18:07;97795.34;;;12.85;64.57
77855;BME280;67046;50.088;14.336;2023-05-07T02:18:38;97799.77;;;12.83;64.85
77855;BME280;67046;50.088;14.336;2023-05-07T02:19:10;97796.92;;;12.82;64.59
77855;BME280;67046;50.088;14.336;2023-05-07T02:19:41;97798.04;;;12.81;64.31
77855;BME280;67046;50.088;14.336;2023-05-07T02:20:12;97796.86;;;12.81;64.82
77855;BME280;67046;50.088;14.336;2023-05-07T02:20:44;97799.35;;;12.80;64.61
77855;BME280;67046;50.088;14.336;2023-05-07T02:21:15;97794.15;;;12.80;64.49
77855;BME280;67046;50.088;14.336;2023-05-07T02:21:47;97795.30;;;12.79;64.75
77855;BME280;67046;50.088;14.336;2023-05-07T02:22:18;97796.27;;;12.79;64.78
77855;BME280;67046;50.088;14.336;2023-05-07T02:22:49;97795.79;;;12.78;64.57
77855;BME280;67046;50.088;14.336;2023-05-07T02:23:21;97796.96;;;12.79;64.82
77855;BME280;67046;50.088;14.336;2023-05-07T02:23:52;97795.36;;;12.79;64.75
77855;BME280;67046;50.088;14.336;2023-05-07T02:24:23;97796.42;;;12.79;64.64
77855;BME280;67046;50.088;14.336;2023-05-07T02:24:54;97793.02;;;12.79;64.71
77855;BME280;67046;50.088;14.336;2023-05-07T02:25:26;97794.20;;;12.79;64.60
77855;BME280;67046;50.088;14.336;2023-05-07T02:25:57;97796.95;;;12.80;64.40
77855;BME280;67046;50.088;14.336;2023-05-07T02:26:28;97794.38;;;12.81;64.68
77855;BME280;67046;50.088;14.336;2023-05-07T02:27:00;97794.60;;;12.82;64.60
77855;BME280;67046;50.088;14.336;2023-05-07T02:27:31;97794.89;;;12.83;64.74
77855;BME280;67046;50.088;14.336;2023-05-07T02:28:02;97792.50;;;12.83;64.50
77855;BME280;67046;50.088;14.336;2023-05-07T02:28:33;97795.05;;;12.84;64.52
77855;BME280;67046;50.088;14.336;2023-05-07T02:29:06;97792.49;;;12.84;64.53
77855;BME280;67046;50.088;14.336;2023-05-07T02:29:37;97796.08;;;12.85;64.46
77855;BME280;67046;50.088;14.336;2023-05-07T02:30:09;97793.30;;;12.86;64.21
77855;BME280;67046;50.088;14.336;2023-05-07T02:30:40;97794.88;;;12.87;64.33
77855;BME280;67046;50.088;14.336;2023-05-07T02:31:11;97795.80;;;12.89;64.37
77855;BME280;67046;50.088;14.336;2023-05-07T02:31:42;97796.30;;;12.90;64.59
77855;BME280;67046;50.088;14.336;2023-05-07T02:32:14;97796.95;;;12.90;64.60
77855;BME280;67046;50.088;14.336;2023-05-07T02:32:45;97798.29;;;12.91;64.46
77855;BME280;67046;50.088;14.336;2023-05-07T02:33:16;97798.59;;;12.91;64.44
77855;BME280;67046;50.088;14.336;2023-05-07T02:33:47;97790.48;;;12.91;64.29
77855;BME280;67046;50.088;14.336;2023-05-07T02:34:19;97795.89;;;12.90;64.35
77855;BME280;67046;50.088;14.336;2023-05-07T02:34:50;97797.69;;;12.90;64.30
77855;BME280;67046;50.088;14.336;2023-05-07T02:35:24;97794.54;;;12.90;64.63
77855;BME280;67046;50.088;14.336;2023-05-07T02:35:56;97796.08;;;12.89;64.61
77855;BME280;67046;50.088;14.336;2023-05-07T02:36:27;97797.45;;;12.89;64.41
77855;BME280;67046;50.088;14.336;2023-05-07T02:36:58;97792.77;;;12.89;64.56
77855;BME280;67046;50.088;14.336;2023-05-07T02:37:30;97790.13;;;12.88;64.52
77855;BME280;67046;50.088;14.336;2023-05-07T02:38:01;97791.11;;;12.87;64.51
77855;BME280;67046;50.088;14.336;2023-05-07T02:38:32;97793.98;;;12.87;64.41
77855;BME280;67046;50.088;14.336;2023-05-07T02:39:04;97791.57;;;12.87;64.43
77855;BME280;67046;50.088;14.336;2023-05-07T02:39:35;97794.00;;;12.86;64.81
77855;BME280;67046;50.088;14.336;2023-05-07T02:40:08;97794.05;;;12.85;64.39
77855;BME280;67046;50.088;14.336;2023-05-07T02:40:40;97791.27;;;12.84;64.17
77855;BME280;67046;50.088;14.336;2023-05-07T02:41:11;97792.20;;;12.81;64.48
77855;BME280;67046;50.088;14.336;2023-05-07T02:41:42;97795.95;;;12.80;64.71
77855;BME280;67046;50.088;14.336;2023-05-07T02:42:13;97792.30;;;12.80;64.89
77855;BME280;67046;50.088;14.336;2023-05-07T02:42:45;97793.88;;;12.80;64.21
77855;BME280;67046;50.088;14.336;2023-05-07T02:43:16;97790.08;;;12.81;64.76
77855;BME280;67046;50.088;14.336;2023-05-07T02:43:48;97795.45;;;12.82;64.73
77855;BME280;67046;50.088;14.336;2023-05-07T02:44:19;97795.45;;;12.82;64.63
77855;BME280;67046;50.088;14.336;2023-05-07T02:44:50;97794.46;;;12.83;64.50
77855;BME280;67046;50.088;14.336;2023-05-07T02:45:22;97799.02;;;12.83;64.68
77855;BME280;67046;50.088;14.336;2023-05-07T02:46:04;97796.95;;;12.84;64.38
77855;BME280;67046;50.088;14.336;2023-05-07T02:46:35;97803.11;;;12.84;64.77
77855;BME280;67046;50.088;14.336;2023-05-07T02:47:06;97802.15;;;12.84;64.62